sensor_id;sensor_type;location;lat;lon;timestamp;pressure;altitude;pressure_sealevel;temperature;humidity
24302;BME280;12421;49.732;20.078;2023-07-22T00:04:00;96355.42;;;16.14;82.33
24302;BME280;12421;49.732;20.078;2023-07-22T00:14:26;96384.84;;;16.35;82.48
24302;BME280;12421;49.732;20.078;2023-07-22T00:25:11;96393.32;;;16.39;83.92
24302;BME280;12421;49.732;20.078;2023-07-22T00:35:29;96388.71;;;16.52;84.84
24302;BME280;12421;49.732;20.078;2023-07-22T00:45:33;96390.48;;;16.56;84.62
24302;BME280;12421;49.732;20.078;2023-07-22T00:55:47;96388.00;;;16.74;85.17
24302;BME280;12421;49.732;20.078;2023-07-22T01:06:08;96371.59;;;16.88;84.67
24302;BME280;12421;49.732;20.078;2023-07-22T01:16:44;96362.43;;;16.86;85.04
24302;BME280;12421;49.732;20.078;2023-07-22T01:27:01;96350.95;;;16.93;84.71
24302;BME280;12421;49.732;20.078;2023-07-22T01:37:36;96326.33;;;16.96;84.27
24302;BME280;12421;49.732;20.078;2023-07-22T01:47:57;96333.98;;;16.95;83.73
24302;BME280;12421;49.732;20.078;2023-07-22T01:58:47;96326.71;;;16.92;82.43
24302;BME280;12421;49.732;20.078;2023-07-22T02:09:31;96330.10;;;16.76;82.07
24302;BME280;12421;49.732;20.078;2023-07-22T02:30:46;96370.02;;;16.37;81.91
24302;BME280;12421;49.732;20.078;2023-07-22T02:52:30;96386.77;;;16.27;82.92
24302;BME280;12421;49.732;20.078;2023-07-22T03:02:55;96395.76;;;16.19;82.89
24302;BME280;12421;49.732;20.078;2023-07-22T03:13:46;96398.73;;;16.21;82.95
24302;BME280;12421;49.732;20.078;2023-07-22T03:34:57;96405.27;;;16.25;83.22
24302;BME280;12421;49.732;20.078;2023-07-22T03:56:22;96404.94;;;16.59;83.50
24302;BME280;12421;49.732;20.078;2023-07-22T04:17:37;96416.96;;;17.27;83.90
24302;BME280;12421;49.732;20.078;2023-07-22T04:38:59;96439.94;;;17.91;83.31
24302;BME280;12421;49.732;20.078;2023-07-22T04:49:25;96458.46;;;18.23;82.49
24302;BME280;12421;49.732;20.078;2023-07-22T04:59:41;96464.42;;;18.64;82.10
24302;BME280;12421;49.732;20.078;2023-07-22T05:09:46;96465.55;;;19.18;81.20
24302;BME280;12421;49.732;20.078;2023-07-22T05:20:15;96473.01;;;19.75;79.66
24302;BME280;12421;49.732;20.078;2023-07-22T05:30:36;96476.01;;;19.99;78.26
24302;BME280;12421;49.732;20.078;2023-07-22T05:40:56;96475.80;;;20.70;77.83
24302;BME280;12421;49.732;20.078;2023-07-22T05:51:01;96479.64;;;22.21;74.12
24302;BME280;12421;49.732;20.078;2023-07-22T06:01:10;96489.27;;;22.57;72.66
24302;BME280;12421;49.732;20.078;2023-07-22T06:11:27;96490.40;;;22.89;71.12
24302;BME280;12421;49.732;20.078;2023-07-22T06:21:34;96487.83;;;23.16;68.75
24302;BME280;12421;49.732;20.078;2023-07-22T06:31:48;96510.22;;;23.18;67.13
24302;BME280;12421;49.732;20.078;2023-07-22T06:41:55;96544.04;;;22.79;66.12
24302;BME280;12421;49.732;20.078;2023-07-22T06:52:22;96545.39;;;22.55;65.43
24302;BME280;12421;49.732;20.078;2023-07-22T07:02:42;96559.21;;;22.38;67.07
24302;BME280;12421;49.732;20.078;2023-07-22T07:12:50;96572.61;;;21.98;66.47
24302;BME280;12421;49.732;20.078;2023-07-22T07:22:56;96588.30;;;21.84;66.47
24302;BME280;12421;49.732;20.078;2023-07-22T07:43:55;96605.40;;;21.70;65.83
24302;BME280;12421;49.732;20.078;2023-07-22T07:53:59;96615.83;;;21.75;66.22
24302;BME280;12421;49.732;20.078;2023-07-22T08:04:32;96621.15;;;22.35;65.79
24302;BME280;12421;49.732;20.078;2023-07-22T08:14:56;96628.98;;;22.83;62.68
24302;BME280;12421;49.732;20.078;2023-07-22T08:25:00;96641.77;;;22.76;62.37
24302;BME280;12421;49.732;20.078;2023-07-22T08:35:11;96654.80;;;22.32;62.79
24302;BME280;12421;49.732;20.078;2023-07-22T08:45:15;96668.04;;;22.14;62.74
24302;BME280;12421;49.732;20.078;2023-07-22T08:55:19;96683.99;;;22.54;61.24
24302;BME280;12421;49.732;20.078;2023-07-22T09:05:28;96693.11;;;22.51;58.84
24302;BME280;12421;49.732;20.078;2023-07-22T09:15:48;96706.66;;;22.46;58.07
24302;BME280;12421;49.732;20.078;2023-07-22T09:26:08;96712.72;;;22.87;59.88
24302;BME280;12421;49.732;20.078;2023-07-22T09:36:12;96714.48;;;23.56;59.68
24302;BME280;12421;49.732;20.078;2023-07-22T09:46:18;96710.73;;;24.14;57.14
24302;BME280;12421;49.732;20.078;2023-07-22T09:56:29;96704.92;;;24.03;56.57
24302;BME280;12421;49.732;20.078;2023-07-22T10:06:36;96702.23;;;24.10;55.71
24302;BME280;12421;49.732;20.078;2023-07-22T10:16:53;96705.73;;;23.93;55.87
24302;BME280;12421;49.732;20.078;2023-07-22T10:27:06;96704.16;;;23.87;55.73
24302;BME280;12421;49.732;20.078;2023-07-22T10:37:35;96705.39;;;24.30;55.31
24302;BME280;12421;49.732;20.078;2023-07-22T10:47:39;96702.21;;;24.68;54.17
24302;BME280;12421;49.732;20.078;2023-07-22T10:57:57;96696.83;;;24.59;53.56
24302;BME280;12421;49.732;20.078;2023-07-22T11:19:24;96699.95;;;24.25;54.49
24302;BME280;12421;49.732;20.078;2023-07-22T11:30:06;96696.71;;;23.96;57.35
24302;BME280;12421;49.732;20.078;2023-07-22T11:40:26;96692.19;;;24.02;54.76
24302;BME280;12421;49.732;20.078;2023-07-22T11:51:00;96691.75;;;23.88;55.70
24302;BME280;12421;49.732;20.078;2023-07-22T12:01:16;96692.11;;;23.93;57.16
24302;BME280;12421;49.732;20.078;2023-07-22T12:11:21;96690.49;;;24.01;56.07
24302;BME280;12421;49.732;20.078;2023-07-22T12:21:45;96691.48;;;24.39;55.15
24302;BME280;12421;49.732;20.078;2023-07-22T12:31:53;96692.29;;;24.58;51.52
24302;BME280;12421;49.732;20.078;2023-07-22T12:41:57;96679.17;;;24.42;50.32
24302;BME280;12421;49.732;20.078;2023-07-22T12:52:11;96683.10;;;24.25;51.85
24302;BME280;12421;49.732;20.078;2023-07-22T13:02:18;96672.23;;;24.16;52.20
24302;BME280;12421;49.732;20.078;2023-07-22T13:12:26;96667.62;;;24.13;50.21
24302;BME280;12421;49.732;20.078;2023-07-22T13:22:29;96670.10;;;24.06;50.19
24302;BME280;12421;49.732;20.078;2023-07-22T13:32:33;96665.71;;;24.22;51.53
24302;BME280;12421;49.732;20.078;2023-07-22T13:42:39;96661.17;;;24.28;50.99
24302;BME280;12421;49.732;20.078;2023-07-22T13:52:43;96656.91;;;24.15;49.08
24302;BME280;12421;49.732;20.078;2023-07-22T14:02:48;96640.65;;;24.04;50.53
24302;BME280;12421;49.732;20.078;2023-07-22T14:12:52;96642.28;;;24.16;51.73
24302;BME280;12421;49.732;20.078;2023-07-22T14:22:57;96630.74;;;24.52;50.88
24302;BME280;12421;49.732;20.078;2023-07-22T14:33:01;96633.08;;;24.78;51.71
24302;BME280;12421;49.732;20.078;2023-07-22T14:43:04;96636.02;;;24.87;51.47
24302;BME280;12421;49.732;20.078;2023-07-22T14:53:15;96634.04;;;24.85;50.70
24302;BME280;12421;49.732;20.078;2023-07-22T15:03:40;96641.05;;;24.92;48.74
24302;BME280;12421;49.732;20.078;2023-07-22T15:14:00;96643.45;;;24.81;50.78
24302;BME280;12421;49.732;20.078;2023-07-22T15:24:05;96648.27;;;24.89;52.19
24302;BME280;12421;49.732;20.078;2023-07-22T15:34:32;96651.94;;;24.93;50.25
24302;BME280;12421;49.732;20.078;2023-07-22T15:45:02;96657.88;;;24.83;50.57
24302;BME280;12421;49.732;20.078;2023-07-22T15:55:07;96663.36;;;24.76;50.24
24302;BME280;12421;49.732;20.078;2023-07-22T16:05:12;96655.94;;;24.56;52.07
24302;BME280;12421;49.732;20.078;2023-07-22T16:15:46;96664.52;;;24.59;52.82
24302;BME280;12421;49.732;20.078;2023-07-22T16:25:49;96673.37;;;24.31;51.21
24302;BME280;12421;49.732;20.078;2023-07-22T16:35:53;96676.12;;;23.99;51.83
24302;BME280;12421;49.732;20.078;2023-07-22T16:46:02;96679.31;;;23.67;52.74
24302;BME280;12421;49.732;20.078;2023-07-22T16:56:08;96683.00;;;23.31;54.82
24302;BME280;12421;49.732;20.078;2023-07-22T17:06:15;96689.48;;;22.94;56.01
24302;BME280;12421;49.732;20.078;2023-07-22T17:16:20;96703.77;;;22.41;57.45
24302;BME280;12421;49.732;20.078;2023-07-22T17:26:24;96709.67;;;21.93;59.50
24302;BME280;12421;49.732;20.078;2023-07-22T17:36:28;96720.59;;;21.53;61.50
24302;BME280;12421;49.732;20.078;2023-07-22T17:46:34;96726.77;;;21.01;62.25
24302;BME280;12421;49.732;20.078;2023-07-22T17:56:37;96732.60;;;20.73;63.92
24302;BME280;12421;49.732;20.078;2023-07-22T18:06:42;96727.30;;;20.39;64.81
24302;BME280;12421;49.732;20.078;2023-07-22T18:16:46;96736.31;;;20.03;66.05
24302;BME280;12421;49.732;20.078;2023-07-22T18:27:09;96738.52;;;19.60;67.10
24302;BME280;12421;49.732;20.078;2023-07-22T18:37:41;96738.73;;;19.11;67.45
24302;BME280;12421;49.732;20.078;2023-07-22T18:47:58;96737.70;;;18.45;68.81
24302;BME280;12421;49.732;20.078;2023-07-22T19:09:19;96760.09;;;17.50;70.80
24302;BME280;12421;49.732;20.078;2023-07-22T19:31:15;96785.39;;;17.03;72.55
24302;BME280;12421;49.732;20.078;2023-07-22T19:41:58;96796.01;;;16.76;72.95
24302;BME280;12421;49.732;20.078;2023-07-22T19:52:43;96793.80;;;16.38;73.18
24302;BME280;12421;49.732;20.078;2023-07-22T20:03:32;96796.02;;;15.90;74.37
24302;BME280;12421;49.732;20.078;2023-07-22T20:14:13;96808.58;;;15.64;74.87
24302;BME280;12421;49.732;20.078;2023-07-22T20:24:37;96818.94;;;15.40;75.49
24302;BME280;12421;49.732;20.078;2023-07-22T20:35:02;96826.00;;;15.10;75.85
24302;BME280;12421;49.732;20.078;2023-07-22T20:45:26;96841.47;;;14.91;76.20
24302;BME280;12421;49.732;20.078;2023-07-22T20:56:15;96842.31;;;14.73;76.24
24302;BME280;12421;49.732;20.078;2023-07-22T21:17:08;96842.14;;;14.48;77.74
24302;BME280;12421;49.732;20.078;2023-07-22T21:49:25;96865.37;;;14.32;77.31
24302;BME280;12421;49.732;20.078;2023-07-22T22:11:38;96869.89;;;13.78;77.61
24302;BME280;12421;49.732;20.078;2023-07-22T22:33:52;96879.80;;;13.33;77.80
24302;BME280;12421;49.732;20.078;2023-07-22T23:18:35;96881.70;;;12.58;79.63
